»·PEaware :: OM-ALJ L88-KSBP

OM-ALJ :: L88-KSBP

FLIGHT INFORMATION

Flight Status: Arrived
Operator: Privately registered:
Slovakia
More flights under this callsign
Pilot: Jan A. (20210)
Aircraft: CESSNA 172 SKYHAWK
(C172)
More flights by this aircraft type
Origin: L88 New Cuyama
United States
Destination: KSBP San Luis Co Regl
United States
More flights between these airports :: More routes between these airports
Route: FLW
File this flight plan on PilotEdge
Remarks: CAT 2 RATING
Altitude:
(Current/Filed)
7,500ft
Speed:
(Current/Filed)
105kts
Departed: 01-Oct-18 02:35 PM
Arrived: 01-Oct-18 03:11 PM
Distance/Time
Traveled:
50nm/0:36
Distance/Time
To Go:
Arrived

Flight Plot

Page will automatically refresh every two minutes.


Map Options




Map Legend


Flown Route
Filed Route
Departure Airport
Arrival Airport
Navaid (VOR, NDB)
Fix

Horizontal Profiles

Position Reports

Time Latitude Longitude Heading Altitude Ground
Speed
01-Oct-18 14:18 34.943924 -119.690796 202 2153ft 0kts
01-Oct-18 14:19 34.943924 -119.690796 203 2153ft 0kts
01-Oct-18 14:20 34.943924 -119.690796 202 2153ft 0kts
01-Oct-18 14:21 34.943924 -119.690796 202 2153ft 0kts
01-Oct-18 14:22 34.943924 -119.690796 202 2153ft 0kts
01-Oct-18 14:23 34.943924 -119.690796 202 2153ft 0kts
01-Oct-18 14:24 34.943924 -119.690796 202 2153ft 0kts
01-Oct-18 14:25 34.943924 -119.690796 202 2153ft 0kts
01-Oct-18 14:26 34.943924 -119.690796 202 2153ft 0kts
01-Oct-18 14:27 34.943924 -119.690796 202 2153ft 0kts
01-Oct-18 14:28 34.943924 -119.690796 202 2153ft 0kts
01-Oct-18 14:29 34.943924 -119.690796 202 2153ft 0kts
01-Oct-18 14:30 34.943924 -119.690796 202 2153ft 0kts
01-Oct-18 14:31 34.943924 -119.690796 202 2153ft 0kts
01-Oct-18 14:32 34.943924 -119.690796 202 2153ft 0kts
01-Oct-18 14:33 34.943924 -119.690796 202 2153ft 0kts
01-Oct-18 14:34 34.943128 -119.690953 194 2154ft 9kts
01-Oct-18 14:35 34.942764 -119.691156 201 2154ft 0kts
01-Oct-18 14:36 34.942636 -119.691212 197 2154ft 5kts
01-Oct-18 14:37 34.939051 -119.683393 115 2358ft 62kts
01-Oct-18 14:38 34.931195 -119.661204 111 3137ft 82kts
01-Oct-18 14:39 34.912727 -119.648668 214 3816ft 108kts
01-Oct-18 14:40 34.915781 -119.688978 290 3621ft 130kts
01-Oct-18 14:41 34.931446 -119.727227 303 3786ft 120kts
01-Oct-18 14:42 34.955812 -119.754683 338 3858ft 127kts
01-Oct-18 14:43 34.983963 -119.746110 74 4251ft 115kts
01-Oct-18 14:44 35.005280 -119.738382 313 4794ft 95kts
01-Oct-18 14:45 35.021536 -119.761552 314 5381ft 88kts
01-Oct-18 14:46 35.036642 -119.785182 314 5855ft 91kts
01-Oct-18 14:47 35.046298 -119.812876 298 6298ft 95kts
01-Oct-18 14:48 35.068767 -119.834956 319 6564ft 104kts
01-Oct-18 14:49 35.087941 -119.856962 312 7071ft 92kts
01-Oct-18 14:50 35.094155 -119.884430 217 7431ft 91kts
01-Oct-18 14:51 35.069514 -119.893266 221 7752ft 99kts
01-Oct-18 14:52 35.050107 -119.926130 245 7439ft 136kts
01-Oct-18 14:53 35.059417 -119.966374 303 7442ft 129kts
01-Oct-18 14:54 35.085197 -119.996237 332 7359ft 129kts
01-Oct-18 14:55 35.110039 -120.023179 292 7282ft 128kts
01-Oct-18 14:56 35.123036 -120.060653 292 7520ft 115kts
01-Oct-18 14:57 35.135191 -120.096823 284 7684ft 115kts
01-Oct-18 14:58 35.141876 -120.140843 274 7493ft 118kts
01-Oct-18 14:59 35.146824 -120.174082 285 7546ft 121kts
01-Oct-18 15:00 35.155343 -120.220984 281 7593ft 123kts
01-Oct-18 15:01 35.160036 -120.263854 283 7485ft 128kts
01-Oct-18 15:02 35.166729 -120.306726 276 7406ft 128kts
01-Oct-18 15:03 35.173138 -120.342172 294 7339ft 129kts
01-Oct-18 15:04 35.188767 -120.389478 294 7250ft 129kts
01-Oct-18 15:05 35.200466 -120.423238 291 6511ft 115kts
01-Oct-18 15:06 35.199542 -120.467149 254 4862ft 113kts
01-Oct-18 15:07 35.191787 -120.497315 253 3697ft 111kts
01-Oct-18 15:08 35.193435 -120.538924 295 2098ft 108kts
01-Oct-18 15:09 35.205281 -120.568479 296 1304ft 92kts
01-Oct-18 15:10 35.212067 -120.591690 299 975ft 76kts
01-Oct-18 15:11 35.220889 -120.612252 307 709ft 61kts
01-Oct-18 15:12 35.230842 -120.629773 305 320ft 65kts
01-Oct-18 15:13 35.237353 -120.639923 7 190ft 8kts
01-Oct-18 15:14 35.237417 -120.639914 5 190ft 0kts
01-Oct-18 15:15 35.236286 -120.637272 125 201ft 13kts
01-Oct-18 15:16 35.235496 -120.635066 251 209ft 3kts
01-Oct-18 15:17 35.235477 -120.635082 204 209ft 0kts

Navigation Log

Ident Type
1. L88 Airport
2. FLW Navaid
3. KSBP Airport